sensor_id;sensor_type;location;lat;lon;timestamp;pressure;altitude;pressure_sealevel;temperature;humidity
43711;BME280;29309;42.682;23.372;2023-02-24T00:01:23;95254.56;;;7.24;84.30
43711;BME280;29309;42.682;23.372;2023-02-24T00:03:57;95249.31;;;7.28;84.96
43711;BME280;29309;42.682;23.372;2023-02-24T00:06:28;95249.78;;;7.25;84.24
43711;BME280;29309;42.682;23.372;2023-02-24T00:09:05;95245.44;;;7.22;83.94
43711;BME280;29309;42.682;23.372;2023-02-24T00:11:33;95241.84;;;7.19;84.36
43711;BME280;29309;42.682;23.372;2023-02-24T00:14:00;95242.09;;;7.23;84.25
43711;BME280;29309;42.682;23.372;2023-02-24T00:16:26;95241.97;;;7.21;84.29
43711;BME280;29309;42.682;23.372;2023-02-24T00:18:51;95249.25;;;7.17;84.10
43711;BME280;29309;42.682;23.372;2023-02-24T00:21:17;95239.56;;;7.16;84.27
43711;BME280;29309;42.682;23.372;2023-02-24T00:23:45;95240.97;;;7.17;84.66
43711;BME280;29309;42.682;23.372;2023-02-24T00:26:12;95229.69;;;7.13;84.63
43711;BME280;29309;42.682;23.372;2023-02-24T00:28:38;95240.50;;;7.09;84.87
43711;BME280;29309;42.682;23.372;2023-02-24T00:31:09;95242.78;;;7.12;84.13
43711;BME280;29309;42.682;23.372;2023-02-24T00:33:35;95235.81;;;7.11;84.36
43711;BME280;29309;42.682;23.372;2023-02-24T00:36:19;95232.69;;;7.05;84.90
43711;BME280;29309;42.682;23.372;2023-02-24T00:38:49;95224.78;;;7.11;84.70
43711;BME280;29309;42.682;23.372;2023-02-24T00:41:17;95229.19;;;7.05;84.70
43711;BME280;29309;42.682;23.372;2023-02-24T00:43:45;95225.69;;;7.04;84.47
43711;BME280;29309;42.682;23.372;2023-02-24T00:46:21;95228.56;;;7.06;84.61
43711;BME280;29309;42.682;23.372;2023-02-24T00:48:48;95223.06;;;7.06;84.28
43711;BME280;29309;42.682;23.372;2023-02-24T00:51:16;95221.03;;;7.07;84.73
43711;BME280;29309;42.682;23.372;2023-02-24T00:53:43;95231.34;;;7.06;84.38
43711;BME280;29309;42.682;23.372;2023-02-24T00:56:09;95222.34;;;7.06;84.32
43711;BME280;29309;42.682;23.372;2023-02-24T00:58:40;95219.09;;;6.98;84.66
43711;BME280;29309;42.682;23.372;2023-02-24T01:01:18;95215.34;;;6.93;84.91
43711;BME280;29309;42.682;23.372;2023-02-24T01:03:45;95215.19;;;6.91;84.93
43711;BME280;29309;42.682;23.372;2023-02-24T01:06:13;95204.25;;;6.81;85.36
43711;BME280;29309;42.682;23.372;2023-02-24T01:08:40;95215.91;;;6.80;85.36
43711;BME280;29309;42.682;23.372;2023-02-24T01:11:13;95204.84;;;6.80;85.57
43711;BME280;29309;42.682;23.372;2023-02-24T01:13:58;95206.28;;;6.81;85.71
43711;BME280;29309;42.682;23.372;2023-02-24T01:16:23;95203.53;;;6.81;85.45
43711;BME280;29309;42.682;23.372;2023-02-24T01:18:49;95201.03;;;6.85;85.21
43711;BME280;29309;42.682;23.372;2023-02-24T01:21:16;95199.56;;;6.84;85.01
43711;BME280;29309;42.682;23.372;2023-02-24T01:23:42;95201.84;;;6.76;85.39
43711;BME280;29309;42.682;23.372;2023-02-24T01:26:11;95197.47;;;6.73;85.68
43711;BME280;29309;42.682;23.372;2023-02-24T01:28:36;95191.97;;;6.73;85.47
43711;BME280;29309;42.682;23.372;2023-02-24T01:31:03;95186.44;;;6.73;85.52
43711;BME280;29309;42.682;23.372;2023-02-24T01:33:33;95192.91;;;6.66;85.55
43711;BME280;29309;42.682;23.372;2023-02-24T01:38:37;95187.00;;;6.60;85.87
43711;BME280;29309;42.682;23.372;2023-02-24T01:41:04;95174.59;;;6.49;85.97
43711;BME280;29309;42.682;23.372;2023-02-24T01:43:33;95180.31;;;6.41;86.84
43711;BME280;29309;42.682;23.372;2023-02-24T01:46:15;95181.22;;;6.34;86.93
43711;BME280;29309;42.682;23.372;2023-02-24T01:48:41;95184.25;;;6.38;86.62
43711;BME280;29309;42.682;23.372;2023-02-24T01:51:07;95188.47;;;6.39;86.18
43711;BME280;29309;42.682;23.372;2023-02-24T01:53:32;95175.59;;;6.32;86.48
43711;BME280;29309;42.682;23.372;2023-02-24T01:55:57;95178.81;;;6.29;86.67
43711;BME280;29309;42.682;23.372;2023-02-24T01:58:27;95174.59;;;6.28;86.80
43711;BME280;29309;42.682;23.372;2023-02-24T02:00:54;95175.47;;;6.30;87.01
43711;BME280;29309;42.682;23.372;2023-02-24T02:03:28;95176.63;;;6.27;86.50
43711;BME280;29309;42.682;23.372;2023-02-24T02:06:13;95180.59;;;6.24;86.76
43711;BME280;29309;42.682;23.372;2023-02-24T02:08:42;95174.81;;;6.20;86.83
43711;BME280;29309;42.682;23.372;2023-02-24T02:11:12;95173.03;;;6.25;86.81
43711;BME280;29309;42.682;23.372;2023-02-24T02:13:42;95165.97;;;6.22;86.77
43711;BME280;29309;42.682;23.372;2023-02-24T02:18:55;95177.03;;;6.12;87.00
43711;BME280;29309;42.682;23.372;2023-02-24T02:35:53;95181.94;;;5.92;87.62
43711;BME280;29309;42.682;23.372;2023-02-24T02:38:36;95176.59;;;5.85;88.03
43711;BME280;29309;42.682;23.372;2023-02-24T02:43:50;95167.19;;;5.78;88.13
43711;BME280;29309;42.682;23.372;2023-02-24T02:46:44;95167.91;;;5.79;88.33
43711;BME280;29309;42.682;23.372;2023-02-24T02:49:15;95177.22;;;5.74;88.58
43711;BME280;29309;42.682;23.372;2023-02-24T02:51:47;95166.31;;;5.76;88.49
43711;BME280;29309;42.682;23.372;2023-02-24T02:54:50;95173.28;;;5.77;88.09
43711;BME280;29309;42.682;23.372;2023-02-24T02:57:22;95163.00;;;5.77;88.19
43711;BME280;29309;42.682;23.372;2023-02-24T03:00:00;95160.22;;;5.77;88.13
43711;BME280;29309;42.682;23.372;2023-02-24T03:02:35;95158.66;;;5.74;88.07
43711;BME280;29309;42.682;23.372;2023-02-24T03:05:06;95161.13;;;5.70;88.40
43711;BME280;29309;42.682;23.372;2023-02-24T03:07:39;95173.59;;;5.71;88.78
43711;BME280;29309;42.682;23.372;2023-02-24T03:10:09;95154.19;;;5.69;88.50
43711;BME280;29309;42.682;23.372;2023-02-24T03:12:44;95165.19;;;5.69;88.64
43711;BME280;29309;42.682;23.372;2023-02-24T03:15:12;95168.56;;;5.68;88.30
43711;BME280;29309;42.682;23.372;2023-02-24T03:17:42;95166.03;;;5.72;88.02
43711;BME280;29309;42.682;23.372;2023-02-24T03:20:17;95160.69;;;5.74;88.14
43711;BME280;29309;42.682;23.372;2023-02-24T03:22:59;95169.06;;;5.76;87.65
43711;BME280;29309;42.682;23.372;2023-02-24T03:25:47;95170.81;;;5.81;87.65
43711;BME280;29309;42.682;23.372;2023-02-24T03:28:25;95183.56;;;5.76;87.68
43711;BME280;29309;42.682;23.372;2023-02-24T03:33:44;95175.91;;;5.75;87.28
43711;BME280;29309;42.682;23.372;2023-02-24T03:36:14;95168.63;;;5.79;87.38
43711;BME280;29309;42.682;23.372;2023-02-24T03:38:40;95167.91;;;5.79;87.21
43711;BME280;29309;42.682;23.372;2023-02-24T03:41:07;95165.41;;;5.83;87.28
43711;BME280;29309;42.682;23.372;2023-02-24T03:43:43;95157.88;;;5.83;86.69
43711;BME280;29309;42.682;23.372;2023-02-24T03:46:09;95155.00;;;5.81;87.04
43711;BME280;29309;42.682;23.372;2023-02-24T03:48:41;95162.81;;;5.85;86.58
43711;BME280;29309;42.682;23.372;2023-02-24T03:51:14;95148.16;;;5.82;86.66
43711;BME280;29309;42.682;23.372;2023-02-24T04:02:04;95163.84;;;5.80;87.04
43711;BME280;29309;42.682;23.372;2023-02-24T04:04:41;95165.28;;;5.81;86.88
43711;BME280;29309;42.682;23.372;2023-02-24T04:10:04;95162.25;;;5.77;86.83
43711;BME280;29309;42.682;23.372;2023-02-24T04:12:56;95165.97;;;5.60;87.37
43711;BME280;29309;42.682;23.372;2023-02-24T04:15:29;95166.94;;;5.65;87.47
43711;BME280;29309;42.682;23.372;2023-02-24T04:18:19;95160.47;;;5.60;87.52
43711;BME280;29309;42.682;23.372;2023-02-24T04:20:46;95155.94;;;5.65;87.28
43711;BME280;29309;42.682;23.372;2023-02-24T04:23:24;95162.59;;;5.71;86.60
43711;BME280;29309;42.682;23.372;2023-02-24T04:25:53;95141.72;;;5.68;86.54
43711;BME280;29309;42.682;23.372;2023-02-24T04:28:22;95154.91;;;5.70;87.04
43711;BME280;29309;42.682;23.372;2023-02-24T04:30:53;95153.00;;;5.72;86.81
43711;BME280;29309;42.682;23.372;2023-02-24T04:33:19;95152.81;;;5.80;86.80
43711;BME280;29309;42.682;23.372;2023-02-24T04:35:47;95149.22;;;5.77;86.47
43711;BME280;29309;42.682;23.372;2023-02-24T04:38:15;95145.56;;;5.84;86.12
43711;BME280;29309;42.682;23.372;2023-02-24T04:40:40;95142.38;;;5.88;85.70
43711;BME280;29309;42.682;23.372;2023-02-24T04:43:07;95143.81;;;5.89;85.29
43711;BME280;29309;42.682;23.372;2023-02-24T04:45:33;95134.38;;;5.92;85.49
43711;BME280;29309;42.682;23.372;2023-02-24T04:48:00;95130.78;;;5.89;84.77
43711;BME280;29309;42.682;23.372;2023-02-24T04:50:34;95125.53;;;5.84;84.85
43711;BME280;29309;42.682;23.372;2023-02-24T04:53:02;95129.91;;;5.87;84.93
43711;BME280;29309;42.682;23.372;2023-02-24T04:55:33;95128.03;;;5.89;84.83
43711;BME280;29309;42.682;23.372;2023-02-24T04:58:02;95138.69;;;5.95;84.25
43711;BME280;29309;42.682;23.372;2023-02-24T05:00:28;95134.75;;;5.98;83.58
43711;BME280;29309;42.682;23.372;2023-02-24T05:03:01;95133.31;;;5.97;83.21
43711;BME280;29309;42.682;23.372;2023-02-24T05:05:27;95139.09;;;6.01;83.40
43711;BME280;29309;42.682;23.372;2023-02-24T05:07:55;95136.47;;;6.03;82.93
43711;BME280;29309;42.682;23.372;2023-02-24T05:10:22;95135.94;;;5.95;83.55
43711;BME280;29309;42.682;23.372;2023-02-24T05:12:56;95132.47;;;5.94;83.91
43711;BME280;29309;42.682;23.372;2023-02-24T05:15:26;95142.91;;;5.96;84.07
43711;BME280;29309;42.682;23.372;2023-02-24T05:18:03;95131.44;;;6.00;84.47
43711;BME280;29309;42.682;23.372;2023-02-24T05:20:35;95140.09;;;6.06;83.85
43711;BME280;29309;42.682;23.372;2023-02-24T05:23:24;95138.78;;;6.07;83.83
43711;BME280;29309;42.682;23.372;2023-02-24T05:25:49;95143.69;;;6.08;83.95
43711;BME280;29309;42.682;23.372;2023-02-24T05:28:21;95153.75;;;6.04;84.37
43711;BME280;29309;42.682;23.372;2023-02-24T05:30:49;95149.66;;;6.05;84.53
43711;BME280;29309;42.682;23.372;2023-02-24T05:33:15;95147.78;;;6.07;84.17
43711;BME280;29309;42.682;23.372;2023-02-24T05:35:46;95152.81;;;6.11;84.22
43711;BME280;29309;42.682;23.372;2023-02-24T05:38:13;95150.53;;;6.07;84.16
43711;BME280;29309;42.682;23.372;2023-02-24T05:40:38;95137.03;;;6.11;84.52
43711;BME280;29309;42.682;23.372;2023-02-24T05:43:22;95153.09;;;6.15;84.10
43711;BME280;29309;42.682;23.372;2023-02-24T05:45:50;95153.94;;;6.17;83.83
43711;BME280;29309;42.682;23.372;2023-02-24T05:48:15;95151.19;;;6.17;83.92
43711;BME280;29309;42.682;23.372;2023-02-24T05:50:41;95149.63;;;6.14;84.14
43711;BME280;29309;42.682;23.372;2023-02-24T05:53:11;95149.72;;;6.16;83.99
43711;BME280;29309;42.682;23.372;2023-02-24T05:55:37;95152.63;;;6.18;83.95
43711;BME280;29309;42.682;23.372;2023-02-24T05:58:02;95157.47;;;6.08;85.02
43711;BME280;29309;42.682;23.372;2023-02-24T06:00:32;95149.91;;;6.09;85.05
43711;BME280;29309;42.682;23.372;2023-02-24T06:02:57;95150.38;;;6.05;85.69
43711;BME280;29309;42.682;23.372;2023-02-24T06:05:32;95158.38;;;6.01;86.31
43711;BME280;29309;42.682;23.372;2023-02-24T06:08:00;95158.53;;;6.03;86.61
43711;BME280;29309;42.682;23.372;2023-02-24T06:10:33;95156.81;;;5.98;87.39
43711;BME280;29309;42.682;23.372;2023-02-24T06:13:02;95156.53;;;5.94;88.25
43711;BME280;29309;42.682;23.372;2023-02-24T06:15:28;95163.03;;;5.99;88.17
43711;BME280;29309;42.682;23.372;2023-02-24T06:17:54;95166.19;;;6.05;88.33
43711;BME280;29309;42.682;23.372;2023-02-24T06:20:24;95167.19;;;6.09;88.08
43711;BME280;29309;42.682;23.372;2023-02-24T06:22:53;95171.84;;;6.07;87.76
43711;BME280;29309;42.682;23.372;2023-02-24T06:25:23;95172.31;;;6.03;87.03
43711;BME280;29309;42.682;23.372;2023-02-24T06:27:52;95168.50;;;6.08;87.46
43711;BME280;29309;42.682;23.372;2023-02-24T06:30:21;95170.22;;;6.13;87.16
43711;BME280;29309;42.682;23.372;2023-02-24T06:32:48;95170.09;;;6.11;87.40
43711;BME280;29309;42.682;23.372;2023-02-24T06:35:15;95168.91;;;6.14;86.82
43711;BME280;29309;42.682;23.372;2023-02-24T06:37:41;95164.13;;;6.15;86.77
43711;BME280;29309;42.682;23.372;2023-02-24T06:40:08;95169.75;;;6.17;86.87
43711;BME280;29309;42.682;23.372;2023-02-24T06:42:47;95164.13;;;6.15;87.24
43711;BME280;29309;42.682;23.372;2023-02-24T06:45:15;95161.13;;;6.22;86.99
43711;BME280;29309;42.682;23.372;2023-02-24T06:47:43;95160.69;;;6.26;86.02
43711;BME280;29309;42.682;23.372;2023-02-24T06:50:14;95162.75;;;6.25;85.77
43711;BME280;29309;42.682;23.372;2023-02-24T06:52:39;95163.44;;;6.26;86.00
43711;BME280;29309;42.682;23.372;2023-02-24T06:55:08;95152.94;;;6.34;85.79
43711;BME280;29309;42.682;23.372;2023-02-24T06:57:56;95155.13;;;6.35;85.69
43711;BME280;29309;42.682;23.372;2023-02-24T07:00:23;95147.78;;;6.28;85.52
43711;BME280;29309;42.682;23.372;2023-02-24T07:03:22;95143.56;;;6.27;85.19
43711;BME280;29309;42.682;23.372;2023-02-24T07:05:50;95143.38;;;6.35;85.40
43711;BME280;29309;42.682;23.372;2023-02-24T07:08:35;95136.94;;;6.42;84.93
43711;BME280;29309;42.682;23.372;2023-02-24T07:11:01;95141.72;;;6.41;85.22
43711;BME280;29309;42.682;23.372;2023-02-24T07:13:31;95143.16;;;6.42;84.91
43711;BME280;29309;42.682;23.372;2023-02-24T07:15:58;95149.88;;;6.39;84.82
43711;BME280;29309;42.682;23.372;2023-02-24T07:18:28;95137.91;;;6.47;85.21
43711;BME280;29309;42.682;23.372;2023-02-24T07:20:55;95138.75;;;6.49;85.51
43711;BME280;29309;42.682;23.372;2023-02-24T07:23:29;95135.31;;;6.60;84.51
43711;BME280;29309;42.682;23.372;2023-02-24T07:25:56;95140.41;;;6.75;84.61
43711;BME280;29309;42.682;23.372;2023-02-24T07:28:23;95130.47;;;6.82;82.98
43711;BME280;29309;42.682;23.372;2023-02-24T07:30:49;95118.63;;;6.91;82.73
43711;BME280;29309;42.682;23.372;2023-02-24T07:33:17;95127.91;;;7.07;81.99
43711;BME280;29309;42.682;23.372;2023-02-24T07:35:49;95125.88;;;7.08;81.50
43711;BME280;29309;42.682;23.372;2023-02-24T07:38:15;95130.66;;;7.07;81.61
43711;BME280;29309;42.682;23.372;2023-02-24T07:40:41;95132.13;;;7.08;80.70
43711;BME280;29309;42.682;23.372;2023-02-24T07:43:07;95126.84;;;7.12;80.79
43711;BME280;29309;42.682;23.372;2023-02-24T07:45:32;95119.88;;;7.11;81.20
43711;BME280;29309;42.682;23.372;2023-02-24T07:47:58;95132.47;;;7.14;80.55
43711;BME280;29309;42.682;23.372;2023-02-24T07:50:25;95125.03;;;7.17;80.04
43711;BME280;29309;42.682;23.372;2023-02-24T07:52:52;95130.06;;;7.20;80.08
43711;BME280;29309;42.682;23.372;2023-02-24T07:55:18;95129.59;;;7.12;80.50
43711;BME280;29309;42.682;23.372;2023-02-24T07:57:43;95128.25;;;7.02;80.59
43711;BME280;29309;42.682;23.372;2023-02-24T08:00:14;95132.56;;;6.93;80.59
43711;BME280;29309;42.682;23.372;2023-02-24T08:02:47;95128.47;;;6.94;80.63
43711;BME280;29309;42.682;23.372;2023-02-24T08:05:15;95125.25;;;6.98;80.74
43711;BME280;29309;42.682;23.372;2023-02-24T08:07:45;95120.56;;;7.00;80.69
43711;BME280;29309;42.682;23.372;2023-02-24T08:10:15;95112.03;;;6.96;81.04
43711;BME280;29309;42.682;23.372;2023-02-24T08:12:52;95104.59;;;6.87;81.99
43711;BME280;29309;42.682;23.372;2023-02-24T08:15:25;95107.69;;;6.81;82.48
43711;BME280;29309;42.682;23.372;2023-02-24T08:17:58;95108.91;;;6.90;81.96
43711;BME280;29309;42.682;23.372;2023-02-24T08:20:28;95108.56;;;6.96;81.49
43711;BME280;29309;42.682;23.372;2023-02-24T08:23:00;95103.50;;;6.92;81.65
43711;BME280;29309;42.682;23.372;2023-02-24T08:25:28;95104.59;;;6.99;82.13
43711;BME280;29309;42.682;23.372;2023-02-24T08:28:00;95101.00;;;6.96;81.24
43711;BME280;29309;42.682;23.372;2023-02-24T08:30:32;95097.16;;;6.89;81.38
43711;BME280;29309;42.682;23.372;2023-02-24T08:33:04;95104.00;;;7.00;81.59
43711;BME280;29309;42.682;23.372;2023-02-24T08:35:32;95106.06;;;7.11;80.74
43711;BME280;29309;42.682;23.372;2023-02-24T08:38:07;95102.47;;;7.20;80.83
43711;BME280;29309;42.682;23.372;2023-02-24T08:40:36;95108.63;;;7.30;80.38
43711;BME280;29309;42.682;23.372;2023-02-24T08:43:10;95096.84;;;7.41;79.95
43711;BME280;29309;42.682;23.372;2023-02-24T08:46:15;95100.94;;;7.40;79.81
43711;BME280;29309;42.682;23.372;2023-02-24T08:48:43;95099.00;;;7.43;79.98
43711;BME280;29309;42.682;23.372;2023-02-24T08:54:13;95100.09;;;7.73;79.09
43711;BME280;29309;42.682;23.372;2023-02-24T08:56:44;95092.97;;;7.81;77.95
43711;BME280;29309;42.682;23.372;2023-02-24T08:59:14;95087.91;;;7.89;77.40
43711;BME280;29309;42.682;23.372;2023-02-24T09:01:59;95097.50;;;8.00;76.59
43711;BME280;29309;42.682;23.372;2023-02-24T09:07:15;95091.81;;;8.21;74.96
43711;BME280;29309;42.682;23.372;2023-02-24T09:09:42;95089.03;;;8.33;74.53
43711;BME280;29309;42.682;23.372;2023-02-24T09:12:10;95086.97;;;8.45;74.28
43711;BME280;29309;42.682;23.372;2023-02-24T09:14:47;95098.09;;;8.59;73.46
43711;BME280;29309;42.682;23.372;2023-02-24T09:17:15;95094.78;;;8.74;72.57
43711;BME280;29309;42.682;23.372;2023-02-24T09:19:48;95097.75;;;8.78;71.48
43711;BME280;29309;42.682;23.372;2023-02-24T09:22:18;95095.09;;;8.80;71.45
43711;BME280;29309;42.682;23.372;2023-02-24T09:27:47;95081.22;;;9.05;72.58
43711;BME280;29309;42.682;23.372;2023-02-24T09:30:27;95089.38;;;9.15;71.74
43711;BME280;29309;42.682;23.372;2023-02-24T09:33:15;95080.94;;;9.13;70.26
43711;BME280;29309;42.682;23.372;2023-02-24T09:38:17;95072.09;;;9.03;71.17
43711;BME280;29309;42.682;23.372;2023-02-24T09:40:47;95073.94;;;8.98;70.89
43711;BME280;29309;42.682;23.372;2023-02-24T09:43:21;95083.91;;;9.03;71.28
43711;BME280;29309;42.682;23.372;2023-02-24T09:48:38;95072.75;;;9.15;70.59
43711;BME280;29309;42.682;23.372;2023-02-24T09:51:15;95070.81;;;9.17;70.77
43711;BME280;29309;42.682;23.372;2023-02-24T09:53:52;95068.25;;;9.21;70.66
43711;BME280;29309;42.682;23.372;2023-02-24T09:56:41;95068.34;;;9.23;70.43
43711;BME280;29309;42.682;23.372;2023-02-24T09:59:14;95064.75;;;9.21;70.31
43711;BME280;29309;42.682;23.372;2023-02-24T10:07:17;95051.94;;;9.41;69.59
43711;BME280;29309;42.682;23.372;2023-02-24T10:09:59;95056.88;;;9.29;69.91
43711;BME280;29309;42.682;23.372;2023-02-24T10:12:50;95042.09;;;9.24;70.17
43711;BME280;29309;42.682;23.372;2023-02-24T10:15:20;95046.69;;;9.33;69.54
43711;BME280;29309;42.682;23.372;2023-02-24T10:21:02;95032.03;;;9.45;69.95
43711;BME280;29309;42.682;23.372;2023-02-24T10:26:39;95026.00;;;9.62;68.77
43711;BME280;29309;42.682;23.372;2023-02-24T10:30:13;95016.34;;;9.63;68.43
43711;BME280;29309;42.682;23.372;2023-02-24T10:35:12;95001.56;;;9.72;68.55
43711;BME280;29309;42.682;23.372;2023-02-24T10:37:38;94998.06;;;9.71;68.61
43711;BME280;29309;42.682;23.372;2023-02-24T10:40:05;94992.72;;;9.75;68.13
43711;BME280;29309;42.682;23.372;2023-02-24T10:42:34;94997.91;;;9.97;68.07
43711;BME280;29309;42.682;23.372;2023-02-24T10:45:36;94985.22;;;10.21;67.16
43711;BME280;29309;42.682;23.372;2023-02-24T10:48:06;94989.25;;;10.47;66.03
43711;BME280;29309;42.682;23.372;2023-02-24T10:50:39;94979.78;;;10.68;65.05
43711;BME280;29309;42.682;23.372;2023-02-24T10:53:13;94981.16;;;10.67;64.96
43711;BME280;29309;42.682;23.372;2023-02-24T10:56:02;94975.28;;;10.61;64.77
43711;BME280;29309;42.682;23.372;2023-02-24T10:58:58;94970.91;;;10.56;65.10
43711;BME280;29309;42.682;23.372;2023-02-24T11:01:43;94961.34;;;10.59;65.06
43711;BME280;29309;42.682;23.372;2023-02-24T11:04:19;94955.63;;;10.86;64.31
43711;BME280;29309;42.682;23.372;2023-02-24T11:07:05;94951.75;;;11.09;63.83
43711;BME280;29309;42.682;23.372;2023-02-24T11:09:37;94947.66;;;11.10;63.10
43711;BME280;29309;42.682;23.372;2023-02-24T11:12:24;94938.94;;;11.17;64.09
43711;BME280;29309;42.682;23.372;2023-02-24T11:15:21;94936.31;;;11.37;62.90
43711;BME280;29309;42.682;23.372;2023-02-24T11:18:06;94932.06;;;11.52;61.72
43711;BME280;29309;42.682;23.372;2023-02-24T11:20:43;94930.88;;;11.57;61.19
43711;BME280;29309;42.682;23.372;2023-02-24T11:23:19;94918.66;;;11.64;60.95
43711;BME280;29309;42.682;23.372;2023-02-24T11:28:53;94915.41;;;11.69;61.33
43711;BME280;29309;42.682;23.372;2023-02-24T11:34:23;94915.16;;;11.79;61.45
43711;BME280;29309;42.682;23.372;2023-02-24T11:37:33;94896.94;;;11.94;60.78
43711;BME280;29309;42.682;23.372;2023-02-24T11:40:13;94891.53;;;12.15;60.44
43711;BME280;29309;42.682;23.372;2023-02-24T11:48:13;94873.16;;;12.63;58.08
43711;BME280;29309;42.682;23.372;2023-02-24T11:51:09;94859.53;;;12.91;56.84
43711;BME280;29309;42.682;23.372;2023-02-24T11:53:56;94852.56;;;13.31;55.53
43711;BME280;29309;42.682;23.372;2023-02-24T11:56:27;94849.50;;;13.65;55.79
43711;BME280;29309;42.682;23.372;2023-02-24T11:59:05;94852.13;;;14.04;53.58
43711;BME280;29309;42.682;23.372;2023-02-24T12:01:45;94849.84;;;14.42;51.54
43711;BME280;29309;42.682;23.372;2023-02-24T12:04:35;94833.84;;;14.68;50.65
43711;BME280;29309;42.682;23.372;2023-02-24T12:07:06;94835.25;;;14.69;50.26
43711;BME280;29309;42.682;23.372;2023-02-24T12:09:49;94826.84;;;14.93;49.55
43711;BME280;29309;42.682;23.372;2023-02-24T12:12:20;94822.59;;;14.66;50.09
43711;BME280;29309;42.682;23.372;2023-02-24T12:14:52;94828.81;;;14.89;49.85
43711;BME280;29309;42.682;23.372;2023-02-24T12:17:41;94824.53;;;15.11;49.17
43711;BME280;29309;42.682;23.372;2023-02-24T12:20:20;94821.34;;;14.97;48.73
43711;BME280;29309;42.682;23.372;2023-02-24T12:22:54;94815.03;;;14.71;49.46
43711;BME280;29309;42.682;23.372;2023-02-24T12:25:24;94821.72;;;14.36;50.39
43711;BME280;29309;42.682;23.372;2023-02-24T12:28:11;94801.31;;;14.08;50.81
43711;BME280;29309;42.682;23.372;2023-02-24T12:30:50;94797.94;;;14.11;51.38
43711;BME280;29309;42.682;23.372;2023-02-24T12:33:42;94785.28;;;14.32;51.30
43711;BME280;29309;42.682;23.372;2023-02-24T12:39:17;94786.22;;;15.46;48.13
43711;BME280;29309;42.682;23.372;2023-02-24T12:46:49;94785.78;;;15.85;46.76
43711;BME280;29309;42.682;23.372;2023-02-24T12:52:22;94792.69;;;14.97;49.07
43711;BME280;29309;42.682;23.372;2023-02-24T13:00:13;94793.00;;;14.34;50.61
43711;BME280;29309;42.682;23.372;2023-02-24T13:05:45;94783.56;;;13.97;53.61
43711;BME280;29309;42.682;23.372;2023-02-24T13:14:13;94760.84;;;13.40;55.39
43711;BME280;29309;42.682;23.372;2023-02-24T13:16:31;94759.50;;;13.19;56.13
43711;BME280;29309;42.682;23.372;2023-02-24T13:19:18;94765.84;;;13.21;55.79
43711;BME280;29309;42.682;23.372;2023-02-24T13:24:43;94757.03;;;13.29;59.47
43711;BME280;29309;42.682;23.372;2023-02-24T13:27:23;94752.63;;;13.22;60.09
43711;BME280;29309;42.682;23.372;2023-02-24T13:29:55;94747.13;;;13.04;60.22
43711;BME280;29309;42.682;23.372;2023-02-24T13:32:33;94746.09;;;12.94;60.36
43711;BME280;29309;42.682;23.372;2023-02-24T13:35:03;94741.09;;;12.90;60.68
43711;BME280;29309;42.682;23.372;2023-02-24T13:37:36;94739.66;;;12.89;61.31
43711;BME280;29309;42.682;23.372;2023-02-24T13:42:41;94732.53;;;12.84;63.24
43711;BME280;29309;42.682;23.372;2023-02-24T13:53:12;94746.91;;;12.76;67.62
43711;BME280;29309;42.682;23.372;2023-02-24T14:01:47;94749.84;;;12.61;67.16
43711;BME280;29309;42.682;23.372;2023-02-24T14:04:21;94741.41;;;12.59;68.37
43711;BME280;29309;42.682;23.372;2023-02-24T14:06:51;94743.28;;;12.52;69.51
43711;BME280;29309;42.682;23.372;2023-02-24T14:09:23;94742.34;;;12.46;69.84
43711;BME280;29309;42.682;23.372;2023-02-24T14:11:58;94738.06;;;12.43;70.25
43711;BME280;29309;42.682;23.372;2023-02-24T14:14:25;94733.78;;;12.40;70.21
43711;BME280;29309;42.682;23.372;2023-02-24T14:16:52;94736.56;;;12.40;70.04
43711;BME280;29309;42.682;23.372;2023-02-24T14:19:17;94732.94;;;12.35;70.06
43711;BME280;29309;42.682;23.372;2023-02-24T14:21:51;94734.94;;;12.32;70.35
43711;BME280;29309;42.682;23.372;2023-02-24T14:24:18;94731.78;;;12.22;71.28
43711;BME280;29309;42.682;23.372;2023-02-24T14:26:53;94743.50;;;12.19;71.46
43711;BME280;29309;42.682;23.372;2023-02-24T14:29:25;94748.25;;;12.16;72.60
43711;BME280;29309;42.682;23.372;2023-02-24T14:31:54;94738.41;;;12.13;72.35
43711;BME280;29309;42.682;23.372;2023-02-24T14:34:22;94736.19;;;12.10;73.28
43711;BME280;29309;42.682;23.372;2023-02-24T14:36:54;94745.25;;;12.10;73.38
43711;BME280;29309;42.682;23.372;2023-02-24T14:39:25;94741.19;;;12.13;73.16
43711;BME280;29309;42.682;23.372;2023-02-24T14:42:09;94732.06;;;12.11;73.35
43711;BME280;29309;42.682;23.372;2023-02-24T14:44:46;94738.25;;;12.09;72.88
43711;BME280;29309;42.682;23.372;2023-02-24T14:47:13;94744.97;;;12.02;72.34
43711;BME280;29309;42.682;23.372;2023-02-24T14:49:39;94745.47;;;11.97;71.94
43711;BME280;29309;42.682;23.372;2023-02-24T14:55:02;94715.03;;;11.83;72.30
43711;BME280;29309;42.682;23.372;2023-02-24T14:57:34;94730.31;;;11.82;72.19
43711;BME280;29309;42.682;23.372;2023-02-24T15:00:17;94728.16;;;11.80;73.26
43711;BME280;29309;42.682;23.372;2023-02-24T15:02:54;94728.94;;;11.83;73.69
43711;BME280;29309;42.682;23.372;2023-02-24T15:05:21;94735.94;;;11.84;72.87
43711;BME280;29309;42.682;23.372;2023-02-24T15:07:47;94732.44;;;11.83;72.98
43711;BME280;29309;42.682;23.372;2023-02-24T15:10:21;94717.81;;;11.83;72.31
43711;BME280;29309;42.682;23.372;2023-02-24T15:12:53;94729.59;;;11.81;73.15
43711;BME280;29309;42.682;23.372;2023-02-24T15:15:23;94731.03;;;11.82;72.58
43711;BME280;29309;42.682;23.372;2023-02-24T15:18:02;94729.03;;;11.85;72.61
43711;BME280;29309;42.682;23.372;2023-02-24T15:20:36;94729.75;;;11.86;72.02
43711;BME280;29309;42.682;23.372;2023-02-24T15:23:04;94722.53;;;11.78;71.64
43711;BME280;29309;42.682;23.372;2023-02-24T15:25:40;94719.03;;;11.78;71.89
43711;BME280;29309;42.682;23.372;2023-02-24T15:28:29;94717.59;;;11.77;71.41
43711;BME280;29309;42.682;23.372;2023-02-24T15:31:34;94718.16;;;11.73;71.42